Flight Track Log - Related Links

Times and Time Zones

All times are in EDT time to prevent confusion due to time zone crossing. See the CAL5392 flight status page for this flight to view local times or setup timezone preferences in your user account.

Time Position Orientation Groundspeed Altitude Reporting Facility
EDT Latitude Longitude Course Direction KTS MPH feet Rate Location/Type
Sun 01:08:54 AM 61.3000 -149.9667 100° East 270 311 6,200  Level Anchorage Center
Sun 01:13:56 AM 61.2167 -149.0333 106° East 400 460 17,500 2,254 Climbing Anchorage Center
Sun 01:14:56 AM 61.1833 -148.8000 106° East 420 483 19,800 2,450 Climbing Anchorage Center
Sun 01:15:56 AM 61.1500 -148.5667 105° East 440 506 22,400 2,132 Climbing Anchorage Center
Sun 01:16:57 AM 61.1167 -148.3167 104° East 450 518 24,100 1,835 Climbing Anchorage Center
Sun 01:17:57 AM 61.0833 -148.0500 111° Southeast 460 529 26,100 1,800 Climbing Anchorage Center
Sun 01:18:57 AM 61.0333 -147.7833 109° East 480 552 27,700 1,983 Climbing Anchorage Center
Sun 01:19:58 AM 60.9833 -147.4833 105° East 480 552 30,100 1,983 Climbing Anchorage Center
Sun 01:20:58 AM 60.9500 -147.2333 110° East 470 541 31,700 1,438 Climbing Anchorage Center
Sun 01:21:59 AM 60.9000 -146.9500 106° East 470 541 33,000 645 Climbing Anchorage Center
Sun 01:22:59 AM 60.8667 -146.7167 105° East 470 541 33,000  Level Anchorage Center
Sun 01:23:59 AM 60.8333 -146.4667 111° Southeast 470 541 33,000  Level Anchorage Center
Sun 01:25:00 AM 60.7833 -146.2000 104° East 470 541 33,000  Level Anchorage Center
Sun 01:26:00 AM 60.7500 -145.9333 112° Southeast 480 552 33,000  Level Anchorage Center
Sun 01:27:00 AM 60.7000 -145.6833 111° Southeast 470 541 33,000  Level Anchorage Center
Sun 01:28:01 AM 60.6500 -145.4167 104° East 490 564 33,000  Level Anchorage Center
Sun 01:29:01 AM 60.6167 -145.1500 112° Southeast 490 564 33,000  Level Anchorage Center
Sun 01:30:02 AM 60.5667 -144.9000 112° Southeast 470 541 33,000  Level Anchorage Center
Sun 01:31:02 AM 60.5167 -144.6500 104° East 480 552 33,000  Level Anchorage Center
Sun 01:32:02 AM 60.4833 -144.3833 112° Southeast 480 552 33,000  Level Anchorage Center
Sun 01:33:03 AM 60.4333 -144.1333 111° Southeast 490 564 33,000  Level Anchorage Center
Sun 01:34:03 AM 60.3833 -143.8667 112° Southeast 480 552 33,000  Level Anchorage Center
Sun 01:35:03 AM 60.3333 -143.6167 112° Southeast 480 552 33,000  Level Anchorage Center
Sun 01:36:04 AM 60.2833 -143.3667 111° Southeast 480 552 33,000  Level Anchorage Center
Sun 01:37:04 AM 60.2333 -143.1000 112° Southeast 480 552 33,000  Level Anchorage Center
Sun 01:38:04 AM 60.1833 -142.8500 112° Southeast 480 552 33,000  Level Anchorage Center
Sun 01:39:05 AM 60.1333 -142.6000 112° Southeast 480 552 33,000  Level Anchorage Center
Sun 01:40:05 AM 60.0833 -142.3500 112° Southeast 480 552 33,000  Level Anchorage Center
Sun 01:41:05 AM 60.0333 -142.1000 112° Southeast 490 564 33,000  Level Anchorage Center
Sun 01:42:06 AM 59.9833 -141.8500 112° Southeast 480 552 33,000  Level Anchorage Center
Sun 01:43:06 AM 59.9333 -141.6000 112° Southeast 480 552 33,000  Level Anchorage Center
Sun 01:44:07 AM 59.8833 -141.3500 112° Southeast 480 552 33,000  Level Anchorage Center
Sun 01:45:07 AM 59.8333 -141.1000 118° Southeast 490 564 33,000  Level Anchorage Center
Sun 01:46:08 AM 59.7667 -140.8500 113° Southeast 480 552 33,000  Level Anchorage Center
Sun 01:47:08 AM 59.7167 -140.6167 112° Southeast 480 552 33,000  Level Anchorage Center
Sun 01:48:08 AM 59.6667 -140.3667 111° Southeast 480 552 33,000  Level Anchorage Center
Sun 01:49:08 AM 59.6167 -140.1167 118° Southeast 490 564 33,000  Level Anchorage Center
Sun 01:50:09 AM 59.5500 -139.8667 113° Southeast 490 564 33,000  Level Anchorage Center
Sun 01:51:09 AM 59.5000 -139.6333 102° East 500 575 33,000  Level Anchorage Center
Sun 01:52:10 AM 59.4667 -139.3333 104° East 500 575 33,000  Level Anchorage Center
Sun 01:53:10 AM 59.4333 -139.0667 104° East 500 575 33,000  Level Anchorage Center
Sun 01:54:10 AM 59.4000 -138.8000 104° East 500 575 33,000  Level Anchorage Center
Sun 01:55:11 AM 59.3667 -138.5333 104° East 500 575 33,000  Level Anchorage Center
Sun 01:56:11 AM 59.3333 -138.2667 104° East 500 575 33,000  Level Anchorage Center
Sun 01:57:12 AM 59.3000 -138.0000 104° East 500 575 33,000  Level Anchorage Center
Sun 01:58:12 AM 59.2667 -137.7333 104° East 510 587 33,000  Level Anchorage Center
Sun 01:59:12 AM 59.2333 -137.4667 104° East 510 587 33,000  Level Anchorage Center
Sun 02:00:12 AM 59.2000 -137.2000 104° East 510 587 33,000  Level Anchorage Center
Sun 02:01:13 AM 59.1667 -136.9333 103° East 510 587 33,000  Level Anchorage Center
Sun 02:02:13 AM 59.1333 -136.6500 104° East 520 598 33,000  Level Anchorage Center
Sun 02:03:14 AM 59.1000 -136.3833 110° East 510 587 33,000  Level Anchorage Center
Sun 02:04:14 AM 59.0500 -136.1167 104° East 510 587 33,000  Level Anchorage Center
Sun 02:05:14 AM 59.0167 -135.8500 104° East 510 587 33,000 645 Level Anchorage Center
Sun 02:06:15 AM 58.9833 -135.5833 110° East 520 598 34,300 992 Climbing Anchorage Center
Sun 02:07:15 AM 58.9333 -135.3167 103° East 510 587 35,000 347 Climbing Anchorage Center
Sun 02:08:16 AM 58.9000 -135.0333 103° East 530 610 35,000 -50 Level Anchorage Center
Sun 02:09:15 AM 58.8667 -134.7667 110° East 520 598 34,900  Descending Anchorage Center
Sun 02:10:16 AM 58.8167 -134.5000 103° East 520 598 35,000 50 Climbing Anchorage Center
Sun 02:11:16 AM 58.7833 -134.2333 90° East 520 598 35,000 Level Anchorage Center
Sun 02:18:32 AM 58.4730 -132.3923 91° East  Level FlightAware Approximate
Sun 02:19:32 AM 58.4281 -132.1412 92° East  Level FlightAware Approximate
Sun 02:20:32 AM 58.3828 -131.8908 92° East  Level FlightAware Approximate
Sun 02:21:32 AM 58.3369 -131.6411 92° East  Level FlightAware Approximate
Sun 02:22:32 AM 58.2901 -131.3923 92° East  Level FlightAware Approximate
Sun 02:23:32 AM 58.2432 -131.1438 92° East  Level FlightAware Approximate
Sun 02:24:32 AM 58.1959 -130.8960 92° East  Level FlightAware Approximate
Sun 02:25:32 AM 58.1482 -130.6489 92° East  Level FlightAware Approximate
Sun 02:26:32 AM 58.0999 -130.4024 93° East  Level FlightAware Approximate
Sun 02:27:32 AM 58.0512 -130.1566 93° East  Level FlightAware Approximate
Sun 02:28:32 AM 57.9999 -129.9131 93° East  Level FlightAware Approximate
Sun 02:29:32 AM 57.9506 -129.6684 93° East  Level FlightAware Approximate
Sun 02:30:32 AM 57.9008 -129.4244 93° East  Level FlightAware Approximate
Sun 02:31:32 AM 57.8506 -129.1810 93° East  Level FlightAware Approximate
Sun 02:32:32 AM 57.7999 -128.9383 93° East  Level FlightAware Approximate
Sun 02:33:32 AM 57.7488 -128.6963 93° East  Level FlightAware Approximate
Sun 02:34:32 AM 57.6972 -128.4550 94° East  Level FlightAware Approximate
Sun 02:35:32 AM 57.6451 -128.2144 94° East  Level FlightAware Approximate
Sun 02:36:32 AM 57.6025 -127.9745 94° East  Level FlightAware Approximate
Sun 02:37:32 AM 57.5495 -127.7352 94° East  Level FlightAware Approximate
Sun 02:38:32 AM 57.4961 -127.4966 94° East  Level FlightAware Approximate
Sun 02:39:32 AM 57.4422 -127.2588 94° East  Level FlightAware Approximate
Sun 02:40:32 AM 57.3878 -127.0216 94° East  Level FlightAware Approximate
Sun 02:41:32 AM 57.3330 -126.7851 94° East  Level FlightAware Approximate
Sun 02:42:32 AM 57.2778 -126.5493 95° East  Level FlightAware Approximate
Sun 02:43:32 AM 57.2113 -126.3248 95° East  Level FlightAware Approximate
Sun 02:44:32 AM 57.1556 -126.0902 95° East  Level FlightAware Approximate
Sun 02:45:32 AM 57.0995 -125.8563 95° East  Level FlightAware Approximate
Sun 02:46:32 AM 57.0429 -125.6231 95° East  Level FlightAware Approximate
Sun 02:47:32 AM 56.9859 -125.3906 95° East  Level FlightAware Approximate
Sun 02:48:32 AM 56.9285 -125.1588 95° East  Level FlightAware Approximate
Sun 02:49:32 AM 56.8662 -124.9317 95° East  Level FlightAware Approximate
Sun 02:50:32 AM 56.8063 -124.7029 95° East  Level FlightAware Approximate
Sun 02:51:32 AM 56.7459 -124.4747 95° East  Level FlightAware Approximate
Sun 02:52:32 AM 56.6852 -124.2473 96° East  Level FlightAware Approximate
Sun 02:53:32 AM 56.6240 -124.0206 96° East  Level FlightAware Approximate
Sun 02:54:32 AM 56.5624 -123.7947 96° East  Level FlightAware Approximate
Sun 02:55:32 AM 56.5004 -123.5695 96° East  Level FlightAware Approximate
Sun 02:56:32 AM 56.4380 -123.3450 96° East  Level FlightAware Approximate
Sun 02:57:32 AM 56.3752 -123.1212 96° East  Level FlightAware Approximate
Sun 02:58:32 AM 56.3120 -122.8982 96° East  Level FlightAware Approximate
Sun 02:59:32 AM 56.2483 -122.6760 96° East  Level FlightAware Approximate
Sun 03:00:32 AM 56.1843 -122.4545 96° East  Level FlightAware Approximate
Sun 03:01:32 AM 56.1428 -122.2225 96° East  Level FlightAware Approximate
Sun 03:02:32 AM 56.0774 -122.0029 97° East  Level FlightAware Approximate
Sun 03:03:32 AM 56.0116 -121.7840 97° East  Level FlightAware Approximate
Sun 03:04:32 AM 55.9455 -121.5659 97° East  Level FlightAware Approximate
Sun 03:05:32 AM 55.8789 -121.3486 97° East  Level FlightAware Approximate
Sun 03:06:32 AM 55.8120 -121.1319 97° East  Level FlightAware Approximate
Sun 03:07:32 AM 55.7447 -120.9161 97° East  Level FlightAware Approximate
Sun 03:08:32 AM 55.6770 -120.7010 97° East  Level FlightAware Approximate
Sun 03:09:32 AM 55.6089 -120.4866 97° East  Level FlightAware Approximate
Sun 03:10:32 AM 55.5405 -120.2729 97° East  Level FlightAware Approximate
Sun 03:11:32 AM 55.4717 -120.0601 97° East  Level FlightAware Approximate
Sun 03:12:32 AM 55.4310 -119.8262 97° East  Level FlightAware Approximate
Sun 03:13:32 AM 55.3605 -119.6156 97° East  Level FlightAware Approximate
Sun 03:14:32 AM 55.2897 -119.4058 97° East  Level FlightAware Approximate
Sun 03:15:32 AM 55.2185 -119.1968 97° East  Level FlightAware Approximate
Sun 03:16:32 AM 55.1543 -118.9812 98° East  Level FlightAware Approximate
Sun 03:17:32 AM 55.1062 -118.7535 98° East  Level FlightAware Approximate
Sun 03:18:32 AM 55.0576 -118.5263 98° East  Level FlightAware Approximate
Sun 03:19:32 AM 55.0087 -118.2997 98° East  Level FlightAware Approximate
Sun 03:20:32 AM 54.9593 -118.0736 98° East  Level FlightAware Approximate
Sun 03:21:32 AM 54.9094 -117.8481 98° East  Level FlightAware Approximate
Sun 03:22:32 AM 54.8592 -117.6231 98° East  Level FlightAware Approximate
Sun 03:23:32 AM 54.8085 -117.3987 98° East  Level FlightAware Approximate
Sun 03:24:32 AM 54.7575 -117.1749 98° East  Level FlightAware Approximate
Sun 03:25:32 AM 54.7108 -116.9484 99° East  Level FlightAware Approximate
Sun 03:26:32 AM 54.6638 -116.7225 99° East  Level FlightAware Approximate
Sun 03:27:32 AM 54.6163 -116.4971 99° East  Level FlightAware Approximate
Sun 03:28:32 AM 54.5684 -116.2722 99° East  Level FlightAware Approximate
Sun 03:29:32 AM 54.5201 -116.0479 99° East  Level FlightAware Approximate
Sun 03:30:32 AM 54.4714 -115.8241 99° East  Level FlightAware Approximate
Sun 03:31:32 AM 54.4222 -115.6008 99° East  Level FlightAware Approximate
Sun 03:32:32 AM 54.3727 -115.3781 99° East  Level FlightAware Approximate
Sun 03:33:32 AM 54.3227 -115.1559 99° East  Level FlightAware Approximate
Sun 03:34:32 AM 54.2723 -114.9342 100° East  Level FlightAware Approximate
Sun 03:35:32 AM 54.2216 -114.7131 100° East  Level FlightAware Approximate
Sun 03:36:32 AM 54.1739 -114.4902 100° East  Level FlightAware Approximate
Sun 03:37:32 AM 54.1259 -114.2678 100° East  Level FlightAware Approximate
Sun 03:38:32 AM 54.0774 -114.0460 100° East  Level FlightAware Approximate
Sun 03:39:32 AM 54.0286 -113.8246 100° East  Level FlightAware Approximate
Sun 03:40:32 AM 53.9793 -113.6038 100° East  Level FlightAware Approximate
Sun 03:41:32 AM 53.9297 -113.3835 100° East  Level FlightAware Approximate
Sun 03:42:32 AM 53.8796 -113.1638 101° East  Level FlightAware Approximate
Sun 03:43:32 AM 53.8291 -112.9445 101° East  Level FlightAware Approximate
Sun 03:44:32 AM 53.7783 -112.7258 101° East  Level FlightAware Approximate
Sun 03:45:32 AM 53.7270 -112.5077 101° East  Level FlightAware Approximate
Sun 03:46:32 AM 53.6753 -112.2900 101° East  Level FlightAware Approximate
Sun 03:47:32 AM 53.6268 -112.0706 101° East  Level FlightAware Approximate
Sun 03:48:32 AM 53.5779 -111.8516 101° East  Level FlightAware Approximate
Sun 03:49:32 AM 53.5286 -111.6332 101° East  Level FlightAware Approximate
Sun 03:50:32 AM 53.4790 -111.4153 101° East  Level FlightAware Approximate
Sun 03:51:32 AM 53.4289 -111.1979 101° East  Level FlightAware Approximate
Sun 03:52:32 AM 53.3784 -110.9809 102° East  Level FlightAware Approximate
Sun 03:53:32 AM 53.3275 -110.7646 102° East  Level FlightAware Approximate
Sun 03:54:32 AM 53.2776 -110.5478 102° East  Level FlightAware Approximate
Sun 03:55:32 AM 53.2274 -110.3315 102° East  Level FlightAware Approximate
Sun 03:56:32 AM 53.1767 -110.1157 102° East  Level FlightAware Approximate
Sun 03:57:32 AM 53.1294 -109.8981 102° East  Level FlightAware Approximate
Sun 03:58:32 AM 53.0816 -109.6810 102° East  Level FlightAware Approximate
Sun 03:59:32 AM 53.0335 -109.4644 102° East  Level FlightAware Approximate
Sun 04:00:32 AM 52.9849 -109.2483 102° East  Level FlightAware Approximate
Sun 04:01:32 AM 52.9360 -109.0326 103° East  Level FlightAware Approximate
Sun 04:02:32 AM 52.8867 -108.8174 103° East  Level FlightAware Approximate
Sun 04:03:32 AM 52.8370 -108.6028 103° East  Level FlightAware Approximate
Sun 04:04:32 AM 52.7869 -108.3886 103° East  Level FlightAware Approximate
Sun 04:05:32 AM 52.7415 -108.1718 103° East  Level FlightAware Approximate
Sun 04:06:32 AM 52.6957 -107.9554 103° East  Level FlightAware Approximate
Sun 04:07:32 AM 52.6496 -107.7395 103° East  Level FlightAware Approximate
Sun 04:08:32 AM 52.6030 -107.5241 103° East  Level FlightAware Approximate
Sun 04:09:32 AM 52.5560 -107.3091 104° East  Level FlightAware Approximate
Sun 04:10:32 AM 52.5087 -107.0946 104° East  Level FlightAware Approximate
Sun 04:11:32 AM 52.4610 -106.8805 104° East  Level FlightAware Approximate
Sun 04:12:32 AM 52.4129 -106.6669 104° East  Level FlightAware Approximate
Sun 04:13:32 AM 52.3644 -106.4538 104° East  Level FlightAware Approximate
Sun 04:14:32 AM 52.3155 -106.2412 104° East  Level FlightAware Approximate
Sun 04:15:32 AM 52.2662 -106.0290 104° East  Level FlightAware Approximate
Sun 04:16:32 AM 52.2166 -105.8173 104° East  Level FlightAware Approximate
Sun 04:17:32 AM 52.1666 -105.6060 104° East  Level FlightAware Approximate
Sun 04:18:32 AM 52.1203 -105.3928 105° East  Level FlightAware Approximate
Sun 04:19:32 AM 52.0736 -105.1800 105° East  Level FlightAware Approximate
Sun 04:20:32 AM 52.0266 -104.9676 105° East  Level FlightAware Approximate
Sun 04:21:32 AM 51.9792 -104.7557 105° East  Level FlightAware Approximate
Sun 04:22:32 AM 51.9314 -104.5442 105° East  Level FlightAware Approximate
Sun 04:23:32 AM 51.8832 -104.3332 105° East  Level FlightAware Approximate
Sun 04:24:32 AM 51.8346 -104.1227 105° East  Level FlightAware Approximate
Sun 04:25:32 AM 51.7857 -103.9125 105° East  Level FlightAware Approximate
Sun 04:26:32 AM 51.7364 -103.7029 106° East  Level FlightAware Approximate
Sun 04:27:32 AM 51.6867 -103.4937 106° East  Level FlightAware Approximate
Sun 04:28:32 AM 51.6416 -103.2820 106° East  Level FlightAware Approximate
Sun 04:29:32 AM 51.5962 -103.0708 106° East  Level FlightAware Approximate
Sun 04:30:32 AM 51.5504 -102.8599 106° East  Level FlightAware Approximate
Sun 04:31:32 AM 51.5042 -102.6495 106° East  Level FlightAware Approximate
Sun 04:32:32 AM 51.4576 -102.4396 106° East  Level FlightAware Approximate
Sun 04:33:32 AM 51.4165 -102.2268 107° East  Level FlightAware Approximate
Sun 04:34:32 AM 51.3751 -102.0145 107° East  Level FlightAware Approximate
Sun 04:35:32 AM 51.3332 -101.8026 107° East  Level FlightAware Approximate
Sun 04:36:32 AM 51.2910 -101.5910 107° East  Level FlightAware Approximate
Sun 04:37:32 AM 51.2484 -101.3799 107° East  Level FlightAware Approximate
Sun 04:38:32 AM 51.2054 -101.1691 107° East  Level FlightAware Approximate
Sun 04:39:32 AM 51.1620 -100.9587 107° East  Level FlightAware Approximate
Sun 04:40:32 AM 51.1183 -100.7487 108° East  Level FlightAware Approximate
Sun 04:41:32 AM 51.0742 -100.5392 108° East  Level FlightAware Approximate
Sun 04:42:32 AM 51.0297 -100.3300 108° East  Level FlightAware Approximate
Sun 04:43:32 AM 50.9848 -100.1212 108° East  Level FlightAware Approximate
Sun 04:44:32 AM 50.9396 -99.9128 108° East  Level FlightAware Approximate
Sun 04:45:32 AM 50.8940 -99.7049 108° East  Level FlightAware Approximate
Sun 04:46:32 AM 50.8480 -99.4973 109° East  Level FlightAware Approximate
Sun 04:47:32 AM 50.8017 -99.2902 109° East  Level FlightAware Approximate
Sun 04:48:32 AM 50.7550 -99.0834 109° East  Level FlightAware Approximate
Sun 04:49:32 AM 50.7079 -98.8771 109° East  Level FlightAware Approximate
Sun 04:50:32 AM 50.6605 -98.6712 109° East  Level FlightAware Approximate
Sun 04:51:32 AM 50.6157 -98.4641 109° East  Level FlightAware Approximate
Sun 04:52:32 AM 50.5705 -98.2573 109° East  Level FlightAware Approximate
Sun 04:53:32 AM 50.5249 -98.0510 110° East  Level FlightAware Approximate
Sun 04:54:32 AM 50.4790 -97.8450 110° East  Level FlightAware Approximate
Sun 04:55:32 AM 50.4327 -97.6395 110° East  Level FlightAware Approximate
Sun 04:56:32 AM 50.3860 -97.4343 110° East  Level FlightAware Approximate
Sun 04:57:32 AM 50.3390 -97.2296 110° East  Level FlightAware Approximate
Sun 04:58:32 AM 50.2917 -97.0252 110° East  Level FlightAware Approximate
Sun 04:59:32 AM 50.2448 -96.8208 111° Southeast  Level FlightAware Approximate
Sun 05:00:32 AM 50.1975 -96.6168 111° Southeast  Level FlightAware Approximate
Sun 05:01:32 AM 50.1499 -96.4132 111° Southeast  Level FlightAware Approximate
Sun 05:02:32 AM 50.1019 -96.2100 111° Southeast  Level FlightAware Approximate
Sun 05:03:32 AM 50.0536 -96.0073 111° Southeast  Level FlightAware Approximate
Sun 05:04:32 AM 50.0049 -95.8049 111° Southeast  Level FlightAware Approximate
Sun 05:05:32 AM 49.9559 -95.6029 112° Southeast  Level FlightAware Approximate
Sun 05:06:32 AM 49.9066 -95.4014 112° Southeast  Level FlightAware Approximate
Sun 05:07:32 AM 49.8568 -95.2002 112° Southeast  Level FlightAware Approximate
Sun 05:08:32 AM 49.8068 -94.9995 112° Southeast  Level FlightAware Approximate
Sun 05:09:32 AM 49.7563 -94.7992 112° Southeast  Level FlightAware Approximate
Sun 05:10:32 AM 49.7056 -94.5993 112° Southeast  Level FlightAware Approximate
Sun 05:11:32 AM 49.6545 -94.3999 113° Southeast  Level FlightAware Approximate
Sun 05:12:32 AM 49.6030 -94.2008 113° Southeast  Level FlightAware Approximate
Sun 05:13:32 AM 49.5519 -94.0018 113° Southeast  Level FlightAware Approximate
Sun 05:14:32 AM 49.5004 -93.8032 113° Southeast  Level FlightAware Approximate
Sun 05:15:32 AM 49.3890 -93.7028 113° Southeast  Level FlightAware Approximate
Sun 05:16:32 AM 49.3396 -93.5036 113° Southeast  Level FlightAware Approximate
Sun 05:17:32 AM 49.2927 -93.3033 113° Southeast  Level FlightAware Approximate
Sun 05:18:32 AM 49.2411 -93.1058 113° Southeast  Level FlightAware Approximate
Sun 05:19:32 AM 49.1892 -92.9087 113° Southeast  Level FlightAware Approximate
Sun 05:20:32 AM 49.1370 -92.7121 114° Southeast  Level FlightAware Approximate
Sun 05:21:32 AM 49.0844 -92.5158 114° Southeast  Level FlightAware Approximate
Sun 05:22:32 AM 49.0315 -92.3200 114° Southeast  Level FlightAware Approximate
Sun 05:23:32 AM 48.9782 -92.1245 114° Southeast  Level FlightAware Approximate
Sun 05:24:32 AM 48.9247 -91.9295 114° Southeast  Level FlightAware Approximate
Sun 05:25:32 AM 48.8708 -91.7349 114° Southeast  Level FlightAware Approximate
Sun 05:26:32 AM 48.8166 -91.5408 115° Southeast  Level FlightAware Approximate
Sun 05:27:32 AM 48.7620 -91.3470 115° Southeast  Level FlightAware Approximate
Sun 05:28:32 AM 48.7272 -91.1435 115° Southeast  Level FlightAware Approximate
Sun 05:29:32 AM 48.6712 -90.9510 115° Southeast  Level FlightAware Approximate
Sun 05:30:32 AM 48.6236 -90.7542 116° Southeast  Level FlightAware Approximate
Sun 05:31:32 AM 48.5662 -90.5631 116° Southeast  Level FlightAware Approximate
Sun 05:32:32 AM 48.5184 -90.3664 116° Southeast  Level FlightAware Approximate
Sun 05:33:32 AM 48.4594 -90.1768 116° Southeast  Level FlightAware Approximate
Sun 05:34:32 AM 48.4002 -89.9876 116° Southeast  Level FlightAware Approximate
Sun 05:35:32 AM 48.3495 -89.7931 117° Southeast  Level FlightAware Approximate
Sun 05:36:32 AM 48.2893 -89.6050 117° Southeast  Level FlightAware Approximate
Sun 05:37:32 AM 48.2420 -89.4092 117° Southeast  Level FlightAware Approximate
Sun 05:38:32 AM 48.1808 -89.2222 117° Southeast  Level FlightAware Approximate
Sun 05:39:32 AM 48.1192 -89.0357 118° Southeast  Level FlightAware Approximate
Sun 05:40:32 AM 48.0557 -88.8510 118° Southeast  Level FlightAware Approximate
Sun 05:41:32 AM 47.9936 -88.6654 118° Southeast  Level FlightAware Approximate
Sun 05:42:32 AM 47.9312 -88.4802 118° Southeast  Level FlightAware Approximate
Sun 05:43:32 AM 47.8668 -88.2969 118° Southeast  Level FlightAware Approximate
Sun 05:44:32 AM 47.8039 -88.1125 118° Southeast  Level FlightAware Approximate
Sun 05:45:32 AM 47.7429 -87.9283 119° Southeast  Level FlightAware Approximate
Sun 05:46:32 AM 47.6771 -87.7466 119° Southeast  Level FlightAware Approximate
Sun 05:47:32 AM 47.6123 -87.5647 119° Southeast  Level FlightAware Approximate
Sun 05:48:32 AM 47.5534 -87.3783 119° Southeast  Level FlightAware Approximate
Sun 05:49:32 AM 47.4853 -87.1992 119° Southeast  Level FlightAware Approximate
Sun 05:50:32 AM 47.4170 -87.0206 120° Southeast  Level FlightAware Approximate
Sun 05:51:32 AM 47.3483 -86.8424 120° Southeast  Level FlightAware Approximate
Sun 05:52:32 AM 47.2964 -86.6546 120° Southeast  Level FlightAware Approximate
Sun 05:53:32 AM 47.2255 -86.4788 120° Southeast  Level FlightAware Approximate
Sun 05:54:32 AM 47.1609 -86.2981 121° Southeast  Level FlightAware Approximate
Sun 05:55:32 AM 47.0946 -86.1188 121° Southeast  Level FlightAware Approximate
Sun 05:56:32 AM 47.0169 -85.9500 121° Southeast  Level FlightAware Approximate
Sun 05:57:32 AM 46.9389 -85.7817 121° Southeast  Level FlightAware Approximate
Sun 05:58:32 AM 46.8606 -85.6139 121° Southeast  Level FlightAware Approximate
Sun 05:59:32 AM 46.7822 -85.4465 120° Southeast  Level FlightAware Approximate
Sun 06:00:32 AM 46.7034 -85.2797 120° Southeast  Level FlightAware Approximate
Sun 06:01:32 AM 46.6244 -85.1134 120° Southeast  Level FlightAware Approximate
Sun 06:02:32 AM 46.5452 -84.9475 120° Southeast  Level FlightAware Approximate
Sun 06:03:32 AM 46.4658 -84.7821 119° Southeast  Level FlightAware Approximate
Sun 06:03:46 AM 45.8000 -83.1000 127° Southeast 570 656 37,000  Level Toronto Center
Sun 06:08:46 AM 45.3333 -82.2167 125° Southeast 550 633 37,000  Level Toronto Center
Sun 06:09:46 AM 45.2333 -82.0167 125° Southeast 550 633 37,000  Level Toronto Center
Sun 06:10:46 AM 45.1667 -81.8833 130° Southeast 550 633 37,000  Level Toronto Center
Sun 06:11:46 AM 45.0667 -81.7167 128° Southeast 550 633 37,000  Level Toronto Center
Sun 06:12:46 AM 44.9667 -81.5333 128° Southeast 550 633 37,000  Level Toronto Center
Sun 06:13:46 AM 44.8667 -81.3500 125° Southeast 550 633 37,000  Level Toronto Center
Sun 06:14:46 AM 44.7833 -81.1833 135° Southeast 550 633 37,000  Level Toronto Center
Sun 06:15:46 AM 44.6667 -81.0167 125° Southeast 550 633 37,000  Level Toronto Center
Sun 06:16:46 AM 44.5833 -80.8500 130° Southeast 550 633 37,000  Level Toronto Center
Sun 06:17:46 AM 44.4833 -80.6833 130° Southeast 550 633 37,000  Level Toronto Center
Sun 06:18:46 AM 44.3833 -80.5167 136° Southeast 550 633 37,000  Level Toronto Center
Sun 06:19:46 AM 44.2833 -80.3833 125° Southeast 550 633 37,000  Level Toronto Center
Sun 06:20:46 AM 44.1833 -80.1833 128° Southeast 560 644 37,000  Level Toronto Center
Sun 06:21:46 AM 44.1000 -80.0333 115° Southeast 550 633 37,000  Level Toronto Center
Sun 06:22:46 AM 44.0333 -79.8333 115° Southeast 550 633 37,000  Level Toronto Center
Sun 06:23:46 AM 43.9667 -79.6333 117° Southeast 550 633 37,000  Level Toronto Center
Sun 06:24:46 AM 43.9000 -79.4500 117° Southeast 550 633 37,000  Level Toronto Center
Sun 06:25:46 AM 43.8333 -79.2667 117° Southeast 550 633 37,000  Level Toronto Center
Sun 06:26:46 AM 43.7667 -79.0833 117° Southeast 550 633 37,000  Level Toronto Center
Sun 06:27:46 AM 43.7000 -78.9000 113° Southeast 550 633 37,000  Level Toronto Center
Sun 06:28:46 AM 43.6333 -78.6833 122° Southeast 550 633 37,000  Level Toronto Center
Sun 06:29:47 AM 43.5697 -78.5406 118° Southeast 550 633 37,000  Level Cleveland Center
Sun 06:30:47 AM 43.4975 -78.3511 118° Southeast 550 633 37,000  Level Cleveland Center
Sun 06:31:47 AM 43.4203 -78.1481 117° Southeast 550 633 37,000  Level Cleveland Center
Sun 06:32:47 AM 43.3517 -77.9594 118° Southeast 545 627 37,000  Level Cleveland Center
Sun 06:33:47 AM 43.2808 -77.7772 117° Southeast 540 621 37,000  Level Cleveland Center
Sun 06:34:47 AM 43.2094 -77.5894 118° Southeast 546 628 37,000  Level Cleveland Center
Sun 06:35:47 AM 43.1375 -77.4022 119° Southeast 546 628 37,000  Level Cleveland Center
Sun 06:37:46 AM 42.9833 -77.0167 116° Southeast 550 633 37,000  Level Toronto Center
Sun 06:38:46 AM 42.9167 -76.8333 120° Southeast 550 633 37,000  Level Toronto Center
Sun 06:39:46 AM 42.8333 -76.6333 117° Southeast 550 633 37,000  Level Toronto Center
Sun 06:41:02 AM 42.7614 -76.4450 118° Southeast 537 618 37,000  Level Boston Center
Sun 06:42:02 AM 42.6903 -76.2653 120° Southeast 537 618 37,000  Level Boston Center
Sun 06:43:02 AM 42.6150 -76.0856 119° Southeast 537 618 37,000  Level Boston Center
Sun 06:44:02 AM 42.5414 -75.9064 119° Southeast 543 625 37,000  Level Boston Center
Sun 06:45:02 AM 42.4675 -75.7250 119° Southeast 543 625 37,000  Level Boston Center
Sun 06:46:02 AM 42.3992 -75.5611 119° Southeast 551 634 37,000  Level Boston Center
Sun 06:47:02 AM 42.3247 -75.3803 118° Southeast 551 634 37,000 -600 Level Boston Center
Sun 06:48:02 AM 42.2464 -75.1803 120° Southeast 551 634 35,800 -1,950 Descending Boston Center
Sun 06:49:02 AM 42.1792 -75.0261 119° Southeast 539 620 33,100 -2,400 Descending Boston Center
Sun 06:50:02 AM 42.1078 -74.8553 119° Southeast 539 620 31,000 -2,150 Descending Boston Center
Sun 06:51:02 AM 42.0306 -74.6650 120° Southeast 539 620 28,800 -1,500 Descending Boston Center
Sun 06:52:02 AM 41.9606 -74.5006 125° Southeast 523 602 28,000 -800 Descending Boston Center
Sun 06:53:02 AM 41.8800 -74.3444 318° Northwest 516 594 27,200 4,162 Descending Boston Center
Sun 06:54:55 AM 43.0500 -75.7833 251° West 390 449 40,000 4,439 Climbing Toronto Center
Sun 06:55:55 AM 43.0167 -75.9167 260° West 390 449 40,000  Level Toronto Center
Sun 06:56:55 AM 43.0000 -76.0500 139° Southeast 390 449 40,000 -8,933 Level Toronto Center
Sun 06:58:10 AM 41.2819 -74.0786 186° South 436 502 19,900 -9,022 Descending New York Center
Sun 06:59:10 AM 41.1669 -74.0950 188° South 424 488 19,700 -265 Descending New York Center
Sun 07:00:03 AM 41.0500 -74.1167 180° South 407 468 19,400 -372 Descending New York TRACON
Sun 07:01:03 AM 40.9500 -74.1167 159° South 400 460 19,000 -350 Descending New York TRACON
Sun 07:02:03 AM 40.8500 -74.0667 119° Southeast 379 436 18,700 -850 Descending New York TRACON
Sun 07:03:03 AM 40.8000 -73.9500 119° Southeast 372 428 17,300 -1,368 Descending New York TRACON
Sun 07:03:57 AM 40.7500 -73.8333 119° Southeast 362 417 16,100 -1,211 Descending New York TRACON
Sun 07:04:57 AM 40.7000 -73.7167 119° Southeast 404 465 15,000 -1,100 Descending New York TRACON

Login

Don't have an account? Register now (free) for customized features, flight alerts, and more!